Time;durP1;ratioP1;P1;durP2;ratioP2;P2;SDS_P1;SDS_P2;PMS_P1;PMS_P2;Temp;Humidity;BMP_temperature;BMP_pressure;BME280_temperature;BME280_humidity;BME280_pressure;Samples;Min_cycle;Max_cycle;Signal;HPM_P1;HPM_P2
2022/05/11 00:09:08;;;;;;;10.30;7.93;;;;;;;13.46;62.96;100120.41;30858368;28;98026;-71
2022/05/11 00:24:10;;;;;;;12.70;9.80;;;;;;;13.52;63.05;100108.94;30856651;28;96866;-71
2022/05/11 00:39:10;;;;;;;12.60;9.13;;;;;;;13.42;63.53;100103.06;30855462;28;97228;-71
2022/05/11 00:54:13;;;;;;;12.57;8.52;;;;;;;13.41;63.92;100088.88;30854961;28;96618;-71
2022/05/11 01:09:14;;;;;;;11.80;8.33;;;;;;;13.49;63.88;100083.38;30853925;28;96723;-70
2022/05/11 01:24:42;;;;;;;11.70;8.57;;;;;;;13.61;63.66;100069.47;30852912;28;97621;-71
2022/05/11 01:39:44;;;;;;;11.90;8.53;;;;;;;13.54;63.57;100054.22;30867181;28;97262;-71
2022/05/11 01:54:46;;;;;;;14.70;7.43;;;;;;;13.55;63.66;100049.69;30871019;28;99124;-72
2022/05/11 02:09:46;;;;;;;9.23;7.80;;;;;;;13.61;63.45;100032.00;30869676;28;96728;-71
2022/05/11 02:24:47;;;;;;;14.13;8.48;;;;;;;13.60;63.78;100025.00;30868118;28;97155;-71
2022/05/11 02:39:48;;;;;;;16.67;8.13;;;;;;;13.66;63.10;100024.22;30865537;28;96815;-72
2022/05/11 02:54:49;;;;;;;16.97;8.03;;;;;;;13.54;63.30;100010.53;30865014;28;96732;-71
2022/05/11 03:09:51;;;;;;;22.27;8.68;;;;;;;13.55;63.93;100022.91;30861689;28;103652;-72
2022/05/11 03:24:51;;;;;;;18.95;8.77;;;;;;;13.52;64.60;100024.13;30860024;28;96782;-71
2022/05/11 03:39:51;;;;;;;13.20;8.10;;;;;;;13.61;64.80;100021.31;30857271;28;106278;-71
2022/05/11 03:54:52;;;;;;;20.85;8.35;;;;;;;13.69;64.64;100023.84;30860253;28;97251;-71
2022/05/11 04:09:52;;;;;;;18.42;7.55;;;;;;;14.12;63.73;100023.72;30855621;28;96873;-71
2022/05/11 04:24:52;;;;;;;25.75;9.43;;;;;;;14.81;62.00;100016.59;30852802;28;96715;-71
2022/05/11 04:39:53;;;;;;;24.73;8.93;;;;;;;15.36;60.97;100024.53;30850516;28;100974;-71
2022/05/11 04:54:53;;;;;;;20.30;7.93;;;;;;;15.83;59.83;100019.16;30848092;28;97655;-71
2022/05/11 05:09:54;;;;;;;20.75;14.27;;;;;;;16.40;58.29;100037.41;30859937;28;96951;-71
2022/05/11 05:24:54;;;;;;;14.50;7.05;;;;;;;17.08;56.96;100041.44;30869664;28;119192;-74
2022/05/11 05:39:54;;;;;;;10.85;5.18;;;;;;;17.85;54.89;100060.13;30861024;28;100385;-70
2022/05/11 05:54:57;;;;;;;8.55;5.50;;;;;;;18.65;52.81;100054.94;30866107;28;97419;-71
2022/05/11 06:09:57;;;;;;;8.53;5.40;;;;;;;19.43;51.20;100047.84;30863702;28;98223;-72
2022/05/11 06:24:57;;;;;;;11.05;4.20;;;;;;;20.57;48.94;100068.28;30863333;28;97274;-72
2022/05/11 06:39:59;;;;;;;10.50;4.35;;;;;;;22.08;43.02;100067.13;30861780;28;96834;-75
2022/05/11 07:10:42;;;;;;;6.73;4.67;;;;;;;24.59;36.64;100059.63;30848772;28;97975;-71
2022/05/11 07:25:42;;;;;;;4.60;4.10;;;;;;;24.38;37.20;100050.56;30919565;28;97303;-71
2022/05/11 07:40:43;;;;;;;;;;;;;;;25.55;35.28;100053.84;30947258;28;96882;-70
2022/05/11 07:55:43;;;;;;;7.72;4.43;;;;;;;25.70;35.01;100042.09;30921302;28;96840;-71
2022/05/11 08:10:46;;;;;;;7.07;4.00;;;;;;;26.69;33.65;100044.25;30853139;28;97321;-72
2022/05/11 08:25:47;;;;;;;9.33;4.63;;;;;;;28.44;30.41;100041.13;30852609;28;97532;-73
2022/05/11 08:41:10;;;;;;;4.65;4.07;;;;;;;29.80;27.89;100025.88;30849651;28;96847;-73
2022/05/11 08:56:23;;;;;;;9.30;4.67;;;;;;;29.38;28.59;100028.56;30842414;28;96806;-72
2022/05/11 09:11:26;;;;;;;6.37;4.23;;;;;;;29.15;29.13;100011.88;30858326;28;97487;-73
2022/05/11 09:26:36;;;;;;;5.27;3.70;;;;;;;29.49;27.67;100012.72;30850374;28;97293;-71
2022/05/11 09:41:37;;;;;;;9.57;4.87;;;;;;;29.71;26.34;100006.56;30844840;28;97381;-72
2022/05/11 09:56:39;;;;;;;7.13;3.42;;;;;;;30.78;25.12;99983.47;30856047;28;98540;-70
2022/05/11 10:11:45;;;;;;;4.43;3.37;;;;;;;31.90;23.75;99975.44;30890768;28;96619;-72
2022/05/11 10:27:11;;;;;;;6.03;3.97;;;;;;;32.83;22.78;99981.75;30933985;28;97128;-72
2022/05/11 10:42:19;;;;;;;6.60;3.60;;;;;;;31.09;23.82;99984.72;30882806;28;97926;-71
2022/05/11 10:57:44;;;;;;;10.80;4.27;;;;;;;31.43;24.04;99966.81;30923056;28;96845;-72
2022/05/11 11:13:07;;;;;;;5.23;4.10;;;;;;;30.88;25.05;99960.44;30880295;28;97759;-74
2022/05/11 11:28:12;;;;;;;6.67;3.80;;;;;;;31.67;24.50;99941.66;30896237;28;97117;-72
2022/05/11 11:43:43;;;;;;;6.97;3.47;;;;;;;30.85;24.02;99915.13;30852769;28;97856;-74
2022/05/11 11:58:43;;;;;;;9.07;4.40;;;;;;;31.16;24.54;99921.81;30849283;28;96981;-75
2022/05/11 12:44:36;;;;;;;6.80;3.80;;;;;;;30.47;25.32;99881.69;30867900;28;97601;-74
2022/05/11 12:59:39;;;;;;;6.53;3.87;;;;;;;29.63;26.15;99872.78;30913228;28;97345;-74
2022/05/11 13:14:52;;;;;;;6.20;3.47;;;;;;;28.41;28.82;99849.97;30912887;28;96688;-75
2022/05/11 13:30:10;;;;;;;6.67;3.30;;;;;;;28.60;28.86;99826.09;30870305;28;97495;-73
2022/05/11 13:45:10;;;;;;;;;;;;;;;28.06;28.39;99822.00;30869888;28;96830;-73
2022/05/11 14:00:21;;;;;;;5.65;3.92;;;;;;;27.49;29.21;99800.88;30866113;28;97674;-72
2022/05/11 14:15:21;;;;;;;4.97;3.70;;;;;;;27.64;28.94;99780.66;30862868;28;96836;-70
2022/05/11 14:30:23;;;;;;;10.93;4.30;;;;;;;27.70;29.80;99758.41;30850641;28;103154;-71
2022/05/11 14:45:23;;;;;;;4.87;3.67;;;;;;;27.46;29.65;99744.81;30862885;28;97408;-73
2022/05/11 15:15:42;;;;;;;;;;;;;;;27.22;30.40;99722.94;30590652;28;96953;-68
2022/05/11 15:30:45;;;;;;;6.40;4.10;;;;;;;27.37;29.97;99700.09;30611571;28;97053;-70
2022/05/11 15:45:45;;;;;;;9.03;4.47;;;;;;;27.32;30.88;99689.97;30604904;28;96744;-72
2022/05/11 16:00:47;;;;;;;6.07;4.55;;;;;;;27.32;30.73;99678.25;30601290;28;97306;-69
2022/05/11 16:15:47;;;;;;;5.57;4.23;;;;;;;27.01;31.27;99676.72;30600829;28;96761;-71
2022/05/11 16:30:48;;;;;;;8.27;4.32;;;;;;;26.89;31.25;99661.84;30599279;28;97417;-69
2022/05/11 16:45:48;;;;;;;6.78;3.90;;;;;;;26.77;31.50;99656.81;30602309;28;97520;-68
2022/05/11 17:00:51;;;;;;;7.05;3.90;;;;;;;26.52;32.16;99651.31;30605544;28;97627;-69
2022/05/11 17:15:54;;;;;;;7.80;4.20;;;;;;;26.17;32.41;99638.84;30628040;28;97850;-69
2022/05/11 17:30:57;;;;;;;6.30;4.10;;;;;;;25.77;33.46;99629.91;30616709;28;97511;-68
2022/05/11 17:45:59;;;;;;;6.67;4.07;;;;;;;25.31;34.54;99631.78;30613675;28;97662;-74
2022/05/11 18:00:59;;;;;;;8.33;3.73;;;;;;;24.83;35.81;99648.66;30623218;28;97503;-73
2022/05/11 18:16:00;;;;;;;6.38;4.10;;;;;;;24.32;36.91;99646.06;30619586;28;97306;-74
2022/05/11 18:31:00;;;;;;;6.57;4.30;;;;;;;23.65;38.30;99644.16;30621998;28;97544;-72
2022/05/11 18:46:04;;;;;;;;;;;;;;;23.14;39.68;99635.91;30622745;28;97232;-71
2022/05/11 19:01:04;;;;;;;8.33;4.60;;;;;;;22.61;40.75;99647.63;30622512;28;96863;-71
2022/05/11 19:16:05;;;;;;;10.23;4.80;;;;;;;22.34;41.28;99658.59;30619655;28;97401;-71
2022/05/11 19:31:08;;;;;;;8.23;5.07;;;;;;;22.05;42.47;99661.59;30616484;28;97387;-71
2022/05/11 19:46:09;;;;;;;8.70;5.27;;;;;;;21.64;43.45;99662.06;30616815;28;97067;-71
2022/05/11 20:01:10;;;;;;;6.30;5.00;;;;;;;21.37;43.92;99650.38;30616279;28;97709;-71
2022/05/11 20:16:11;;;;;;;11.80;5.43;;;;;;;20.95;44.61;99639.09;30614420;28;97200;-71
2022/05/11 20:46:30;;;;;;;8.73;4.77;;;;;;;20.35;44.52;99629.06;30609260;28;97014;-71
2022/05/11 21:01:31;;;;;;;12.88;4.82;;;;;;;20.14;44.28;99628.75;30610652;28;97481;-71
2022/05/11 21:16:31;;;;;;;9.75;4.25;;;;;;;19.87;44.51;99623.19;30609493;28;103663;-71
2022/05/11 21:31:32;;;;;;;11.73;4.65;;;;;;;19.44;45.59;99620.81;30607150;28;96761;-71
2022/05/11 21:46:32;;;;;;;8.82;4.93;;;;;;;19.01;46.44;99611.38;30611898;28;97295;-71
2022/05/11 22:01:34;;;;;;;5.13;3.97;;;;;;;18.82;46.82;99602.63;30628412;28;97233;-71
2022/05/11 22:16:34;;;;;;;6.20;4.17;;;;;;;18.90;46.10;99610.38;30627313;28;96842;-71
2022/05/11 22:31:35;;;;;;;5.43;3.85;;;;;;;19.02;45.94;99591.44;30618231;28;98438;-70
2022/05/11 22:46:36;;;;;;;8.13;3.70;;;;;;;19.04;45.23;99592.03;30611275;28;97348;-70
2022/05/11 23:01:37;;;;;;;7.80;3.80;;;;;;;18.88;46.25;99587.38;30510726;28;96743;-69
2022/05/11 23:16:37;;;;;;;7.03;4.40;;;;;;;18.83;46.38;99576.47;30620748;28;113816;-70
2022/05/11 23:31:37;;;;;;;7.50;3.88;;;;;;;18.81;46.23;99565.06;30619934;28;96750;-70
2022/05/11 23:46:38;;;;;;;5.82;3.88;;;;;;;18.97;45.64;99566.22;30618794;28;99198;-71
